sensor_id;sensor_type;location;lat;lon;timestamp;temperature;humidity
26873;DHT22;14445;53.056;4.804;2022-07-29T00:00:28;18.30;92.80
26873;DHT22;14445;53.056;4.804;2022-07-29T00:02:54;18.20;92.80
26873;DHT22;14445;53.056;4.804;2022-07-29T00:05:20;18.20;93.00
26873;DHT22;14445;53.056;4.804;2022-07-29T00:07:46;18.20;93.10
26873;DHT22;14445;53.056;4.804;2022-07-29T00:10:11;18.20;93.20
26873;DHT22;14445;53.056;4.804;2022-07-29T00:12:37;18.20;93.20
26873;DHT22;14445;53.056;4.804;2022-07-29T00:15:03;18.20;93.30
26873;DHT22;14445;53.056;4.804;2022-07-29T00:17:29;18.20;93.30
26873;DHT22;14445;53.056;4.804;2022-07-29T00:19:54;18.20;93.40
26873;DHT22;14445;53.056;4.804;2022-07-29T00:22:20;18.20;93.30
26873;DHT22;14445;53.056;4.804;2022-07-29T00:24:47;18.20;93.40
26873;DHT22;14445;53.056;4.804;2022-07-29T00:27:14;18.20;93.50
26873;DHT22;14445;53.056;4.804;2022-07-29T00:29:39;18.20;93.60
26873;DHT22;14445;53.056;4.804;2022-07-29T00:32:05;18.20;93.70
26873;DHT22;14445;53.056;4.804;2022-07-29T00:34:31;18.20;93.70
26873;DHT22;14445;53.056;4.804;2022-07-29T00:37:15;18.20;93.80
26873;DHT22;14445;53.056;4.804;2022-07-29T00:39:40;18.20;93.80
26873;DHT22;14445;53.056;4.804;2022-07-29T00:42:06;18.20;93.90
26873;DHT22;14445;53.056;4.804;2022-07-29T00:44:39;18.20;93.90
26873;DHT22;14445;53.056;4.804;2022-07-29T00:47:05;18.20;94.10
26873;DHT22;14445;53.056;4.804;2022-07-29T00:49:30;18.30;94.20
26873;DHT22;14445;53.056;4.804;2022-07-29T00:51:57;18.30;94.20
26873;DHT22;14445;53.056;4.804;2022-07-29T00:54:22;18.30;94.10
26873;DHT22;14445;53.056;4.804;2022-07-29T00:56:49;18.30;94.20
26873;DHT22;14445;53.056;4.804;2022-07-29T00:59:14;18.30;94.30
26873;DHT22;14445;53.056;4.804;2022-07-29T01:01:40;18.30;94.30
26873;DHT22;14445;53.056;4.804;2022-07-29T01:04:06;18.30;94.30
26873;DHT22;14445;53.056;4.804;2022-07-29T01:06:32;18.30;94.40
26873;DHT22;14445;53.056;4.804;2022-07-29T01:08:59;18.30;94.50
26873;DHT22;14445;53.056;4.804;2022-07-29T01:11:25;18.40;94.50
26873;DHT22;14445;53.056;4.804;2022-07-29T01:13:51;18.30;94.80
26873;DHT22;14445;53.056;4.804;2022-07-29T01:16:39;18.30;94.60
26873;DHT22;14445;53.056;4.804;2022-07-29T01:19:43;18.30;94.60
26873;DHT22;14445;53.056;4.804;2022-07-29T01:22:25;18.30;94.60
26873;DHT22;14445;53.056;4.804;2022-07-29T01:25:06;18.30;94.60
26873;DHT22;14445;53.056;4.804;2022-07-29T01:27:51;18.30;94.60
26873;DHT22;14445;53.056;4.804;2022-07-29T01:30:24;18.30;94.60
26873;DHT22;14445;53.056;4.804;2022-07-29T01:32:54;18.30;94.60
26873;DHT22;14445;53.056;4.804;2022-07-29T01:35:41;18.30;94.60
26873;DHT22;14445;53.056;4.804;2022-07-29T01:38:16;18.20;94.80
26873;DHT22;14445;53.056;4.804;2022-07-29T01:41:31;18.30;94.70
26873;DHT22;14445;53.056;4.804;2022-07-29T01:43:54;18.20;94.70
26873;DHT22;14445;53.056;4.804;2022-07-29T01:46:36;18.20;94.80
26873;DHT22;14445;53.056;4.804;2022-07-29T01:49:10;18.30;94.90
26873;DHT22;14445;53.056;4.804;2022-07-29T01:51:46;18.30;95.00
26873;DHT22;14445;53.056;4.804;2022-07-29T01:56:59;18.30;95.00
26873;DHT22;14445;53.056;4.804;2022-07-29T01:59:26;18.30;95.00
26873;DHT22;14445;53.056;4.804;2022-07-29T02:01:54;18.30;95.10
26873;DHT22;14445;53.056;4.804;2022-07-29T02:04:20;18.30;95.10
26873;DHT22;14445;53.056;4.804;2022-07-29T02:06:49;18.20;95.20
26873;DHT22;14445;53.056;4.804;2022-07-29T02:09:17;18.20;95.40
26873;DHT22;14445;53.056;4.804;2022-07-29T02:11:48;18.20;95.40
26873;DHT22;14445;53.056;4.804;2022-07-29T02:14:18;18.20;95.50
26873;DHT22;14445;53.056;4.804;2022-07-29T02:16:45;18.20;95.50
26873;DHT22;14445;53.056;4.804;2022-07-29T02:19:12;18.20;95.60
26873;DHT22;14445;53.056;4.804;2022-07-29T02:21:39;18.20;95.60
26873;DHT22;14445;53.056;4.804;2022-07-29T02:24:06;18.20;95.70
26873;DHT22;14445;53.056;4.804;2022-07-29T02:26:33;18.20;95.80
26873;DHT22;14445;53.056;4.804;2022-07-29T02:29:00;18.20;95.70
26873;DHT22;14445;53.056;4.804;2022-07-29T02:31:30;18.20;95.90
26873;DHT22;14445;53.056;4.804;2022-07-29T02:33:57;18.20;95.90
26873;DHT22;14445;53.056;4.804;2022-07-29T02:36:24;18.10;96.10
26873;DHT22;14445;53.056;4.804;2022-07-29T02:38:51;18.10;96.30
26873;DHT22;14445;53.056;4.804;2022-07-29T02:41:37;18.10;96.40
26873;DHT22;14445;53.056;4.804;2022-07-29T02:44:09;18.10;96.40
26873;DHT22;14445;53.056;4.804;2022-07-29T02:46:36;18.10;96.70
26873;DHT22;14445;53.056;4.804;2022-07-29T02:51:44;18.10;96.90
26873;DHT22;14445;53.056;4.804;2022-07-29T02:54:14;18.10;96.90
26873;DHT22;14445;53.056;4.804;2022-07-29T02:56:44;18.10;97.10
26873;DHT22;14445;53.056;4.804;2022-07-29T02:59:11;18.20;97.20
26873;DHT22;14445;53.056;4.804;2022-07-29T03:01:41;18.10;97.20
26873;DHT22;14445;53.056;4.804;2022-07-29T03:04:09;18.10;97.40
26873;DHT22;14445;53.056;4.804;2022-07-29T03:06:37;18.10;97.50
26873;DHT22;14445;53.056;4.804;2022-07-29T03:09:04;18.10;97.70
26873;DHT22;14445;53.056;4.804;2022-07-29T03:11:30;18.10;97.80
26873;DHT22;14445;53.056;4.804;2022-07-29T03:13:56;18.10;98.00
26873;DHT22;14445;53.056;4.804;2022-07-29T03:16:22;18.10;98.10
26873;DHT22;14445;53.056;4.804;2022-07-29T03:18:49;18.10;98.30
26873;DHT22;14445;53.056;4.804;2022-07-29T03:21:15;18.10;98.40
26873;DHT22;14445;53.056;4.804;2022-07-29T03:23:44;18.00;98.50
26873;DHT22;14445;53.056;4.804;2022-07-29T03:26:13;18.00;98.60
26873;DHT22;14445;53.056;4.804;2022-07-29T03:28:39;18.00;98.70
26873;DHT22;14445;53.056;4.804;2022-07-29T03:31:04;18.00;99.00
26873;DHT22;14445;53.056;4.804;2022-07-29T03:33:30;18.00;99.00
26873;DHT22;14445;53.056;4.804;2022-07-29T03:35:56;18.00;99.10
26873;DHT22;14445;53.056;4.804;2022-07-29T03:38:24;18.00;99.30
26873;DHT22;14445;53.056;4.804;2022-07-29T03:40:53;18.00;99.40
26873;DHT22;14445;53.056;4.804;2022-07-29T03:43:22;18.00;99.60
26873;DHT22;14445;53.056;4.804;2022-07-29T03:45:51;18.00;99.70
26873;DHT22;14445;53.056;4.804;2022-07-29T03:48:21;18.00;99.90
26873;DHT22;14445;53.056;4.804;2022-07-29T03:50:47;17.90;99.90
26873;DHT22;14445;53.056;4.804;2022-07-29T03:53:14;17.90;99.90
26873;DHT22;14445;53.056;4.804;2022-07-29T03:55:43;17.90;99.90
26873;DHT22;14445;53.056;4.804;2022-07-29T03:58:10;17.90;99.90
26873;DHT22;14445;53.056;4.804;2022-07-29T04:00:38;18.00;99.90
26873;DHT22;14445;53.056;4.804;2022-07-29T04:03:04;17.90;99.90
26873;DHT22;14445;53.056;4.804;2022-07-29T04:05:30;18.00;99.90
26873;DHT22;14445;53.056;4.804;2022-07-29T04:07:56;18.00;99.90
26873;DHT22;14445;53.056;4.804;2022-07-29T04:10:22;18.00;99.90
26873;DHT22;14445;53.056;4.804;2022-07-29T04:12:50;18.00;99.90
26873;DHT22;14445;53.056;4.804;2022-07-29T04:15:16;18.00;99.90
26873;DHT22;14445;53.056;4.804;2022-07-29T04:17:41;18.00;99.90
26873;DHT22;14445;53.056;4.804;2022-07-29T04:20:08;18.00;99.90
26873;DHT22;14445;53.056;4.804;2022-07-29T04:22:33;18.10;99.90
26873;DHT22;14445;53.056;4.804;2022-07-29T04:24:59;18.10;99.90
26873;DHT22;14445;53.056;4.804;2022-07-29T04:27:24;18.10;99.90
26873;DHT22;14445;53.056;4.804;2022-07-29T04:29:50;18.10;99.90
26873;DHT22;14445;53.056;4.804;2022-07-29T04:32:15;18.10;99.90
26873;DHT22;14445;53.056;4.804;2022-07-29T04:34:41;18.20;99.90
26873;DHT22;14445;53.056;4.804;2022-07-29T04:37:06;18.20;99.90
26873;DHT22;14445;53.056;4.804;2022-07-29T04:39:32;18.20;99.90
26873;DHT22;14445;53.056;4.804;2022-07-29T04:41:57;18.20;99.90
26873;DHT22;14445;53.056;4.804;2022-07-29T04:44:23;18.30;99.90
26873;DHT22;14445;53.056;4.804;2022-07-29T04:46:48;18.30;99.90
26873;DHT22;14445;53.056;4.804;2022-07-29T04:49:14;18.30;99.90
26873;DHT22;14445;53.056;4.804;2022-07-29T04:51:40;18.30;99.90
26873;DHT22;14445;53.056;4.804;2022-07-29T04:54:05;18.30;99.90
26873;DHT22;14445;53.056;4.804;2022-07-29T04:56:31;18.40;99.90
26873;DHT22;14445;53.056;4.804;2022-07-29T04:58:57;18.40;99.90
26873;DHT22;14445;53.056;4.804;2022-07-29T05:01:22;18.40;99.90
26873;DHT22;14445;53.056;4.804;2022-07-29T05:03:48;18.40;99.90
26873;DHT22;14445;53.056;4.804;2022-07-29T05:06:14;18.50;99.90
26873;DHT22;14445;53.056;4.804;2022-07-29T05:08:39;18.60;99.90
26873;DHT22;14445;53.056;4.804;2022-07-29T05:11:05;18.60;99.90
26873;DHT22;14445;53.056;4.804;2022-07-29T05:13:30;18.70;99.90
26873;DHT22;14445;53.056;4.804;2022-07-29T05:15:56;18.80;99.90
26873;DHT22;14445;53.056;4.804;2022-07-29T05:18:24;18.80;99.90
26873;DHT22;14445;53.056;4.804;2022-07-29T05:20:49;18.80;99.90
26873;DHT22;14445;53.056;4.804;2022-07-29T05:23:15;18.80;99.90
26873;DHT22;14445;53.056;4.804;2022-07-29T05:25:40;18.90;99.90
26873;DHT22;14445;53.056;4.804;2022-07-29T05:28:06;18.90;99.90
26873;DHT22;14445;53.056;4.804;2022-07-29T05:30:32;18.90;99.90
26873;DHT22;14445;53.056;4.804;2022-07-29T05:32:57;19.00;99.90
26873;DHT22;14445;53.056;4.804;2022-07-29T05:35:23;19.10;99.90
26873;DHT22;14445;53.056;4.804;2022-07-29T05:37:48;19.10;99.90
26873;DHT22;14445;53.056;4.804;2022-07-29T05:40:14;19.20;99.90
26873;DHT22;14445;53.056;4.804;2022-07-29T05:42:39;19.30;99.90
26873;DHT22;14445;53.056;4.804;2022-07-29T05:45:05;19.30;99.90
26873;DHT22;14445;53.056;4.804;2022-07-29T05:47:31;19.40;99.90
26873;DHT22;14445;53.056;4.804;2022-07-29T05:49:57;19.40;99.90
26873;DHT22;14445;53.056;4.804;2022-07-29T05:52:22;19.50;99.90
26873;DHT22;14445;53.056;4.804;2022-07-29T05:54:48;19.50;99.90
26873;DHT22;14445;53.056;4.804;2022-07-29T05:57:22;19.60;99.90
26873;DHT22;14445;53.056;4.804;2022-07-29T05:59:49;19.70;99.90
26873;DHT22;14445;53.056;4.804;2022-07-29T06:02:15;19.70;99.90
26873;DHT22;14445;53.056;4.804;2022-07-29T06:04:41;19.80;99.90
26873;DHT22;14445;53.056;4.804;2022-07-29T06:07:07;19.90;99.90
26873;DHT22;14445;53.056;4.804;2022-07-29T06:09:33;19.90;99.90
26873;DHT22;14445;53.056;4.804;2022-07-29T06:11:58;19.80;99.90
26873;DHT22;14445;53.056;4.804;2022-07-29T06:14:25;19.70;99.90
26873;DHT22;14445;53.056;4.804;2022-07-29T06:16:51;19.80;99.90
26873;DHT22;14445;53.056;4.804;2022-07-29T06:19:16;19.80;99.90
26873;DHT22;14445;53.056;4.804;2022-07-29T06:21:43;19.80;99.90
26873;DHT22;14445;53.056;4.804;2022-07-29T06:24:13;19.80;99.90
26873;DHT22;14445;53.056;4.804;2022-07-29T06:26:40;19.80;99.90
26873;DHT22;14445;53.056;4.804;2022-07-29T06:29:07;19.80;99.90
26873;DHT22;14445;53.056;4.804;2022-07-29T06:31:32;19.80;99.90
26873;DHT22;14445;53.056;4.804;2022-07-29T06:33:58;19.80;99.90
26873;DHT22;14445;53.056;4.804;2022-07-29T06:36:23;19.70;99.90
26873;DHT22;14445;53.056;4.804;2022-07-29T06:38:49;19.70;99.90
26873;DHT22;14445;53.056;4.804;2022-07-29T06:41:14;19.70;99.90
26873;DHT22;14445;53.056;4.804;2022-07-29T06:43:43;19.80;99.90
26873;DHT22;14445;53.056;4.804;2022-07-29T06:46:11;19.80;99.90
26873;DHT22;14445;53.056;4.804;2022-07-29T06:48:38;19.80;99.90
26873;DHT22;14445;53.056;4.804;2022-07-29T06:51:05;19.70;99.90
26873;DHT22;14445;53.056;4.804;2022-07-29T06:53:32;19.70;99.90
26873;DHT22;14445;53.056;4.804;2022-07-29T06:55:59;19.70;99.90
26873;DHT22;14445;53.056;4.804;2022-07-29T06:58:26;19.70;99.90
26873;DHT22;14445;53.056;4.804;2022-07-29T07:00:51;19.70;99.90
26873;DHT22;14445;53.056;4.804;2022-07-29T07:03:18;19.70;99.90
26873;DHT22;14445;53.056;4.804;2022-07-29T07:05:45;19.80;99.90
26873;DHT22;14445;53.056;4.804;2022-07-29T07:08:12;19.80;99.90
26873;DHT22;14445;53.056;4.804;2022-07-29T07:10:39;19.80;99.90
26873;DHT22;14445;53.056;4.804;2022-07-29T07:13:05;19.80;99.90
26873;DHT22;14445;53.056;4.804;2022-07-29T07:15:30;19.80;99.90
26873;DHT22;14445;53.056;4.804;2022-07-29T07:17:56;19.80;99.90
26873;DHT22;14445;53.056;4.804;2022-07-29T07:20:23;19.90;99.90
26873;DHT22;14445;53.056;4.804;2022-07-29T07:22:48;19.90;99.90
26873;DHT22;14445;53.056;4.804;2022-07-29T07:25:14;20.00;99.90
26873;DHT22;14445;53.056;4.804;2022-07-29T07:27:39;20.10;99.90
26873;DHT22;14445;53.056;4.804;2022-07-29T07:30:07;20.10;99.90
26873;DHT22;14445;53.056;4.804;2022-07-29T07:32:34;20.10;99.90
26873;DHT22;14445;53.056;4.804;2022-07-29T07:34:59;20.20;99.90
26873;DHT22;14445;53.056;4.804;2022-07-29T07:37:25;20.20;99.90
26873;DHT22;14445;53.056;4.804;2022-07-29T07:39:52;20.20;99.90
26873;DHT22;14445;53.056;4.804;2022-07-29T07:42:18;20.40;99.90
26873;DHT22;14445;53.056;4.804;2022-07-29T07:44:44;20.50;99.90
26873;DHT22;14445;53.056;4.804;2022-07-29T07:47:14;20.60;99.90
26873;DHT22;14445;53.056;4.804;2022-07-29T07:49:39;20.70;99.90
26873;DHT22;14445;53.056;4.804;2022-07-29T07:52:05;20.90;99.90
26873;DHT22;14445;53.056;4.804;2022-07-29T07:54:31;20.90;99.90
26873;DHT22;14445;53.056;4.804;2022-07-29T07:56:57;21.20;99.90
26873;DHT22;14445;53.056;4.804;2022-07-29T07:59:23;21.30;99.90
26873;DHT22;14445;53.056;4.804;2022-07-29T08:01:49;21.40;99.90
26873;DHT22;14445;53.056;4.804;2022-07-29T08:04:15;21.50;99.90
26873;DHT22;14445;53.056;4.804;2022-07-29T08:06:40;21.50;99.90
26873;DHT22;14445;53.056;4.804;2022-07-29T08:09:06;21.50;99.90
26873;DHT22;14445;53.056;4.804;2022-07-29T08:11:32;21.40;99.90
26873;DHT22;14445;53.056;4.804;2022-07-29T08:13:58;21.40;99.90
26873;DHT22;14445;53.056;4.804;2022-07-29T08:16:23;21.30;99.90
26873;DHT22;14445;53.056;4.804;2022-07-29T08:18:51;21.40;99.90
26873;DHT22;14445;53.056;4.804;2022-07-29T08:21:17;21.50;99.90
26873;DHT22;14445;53.056;4.804;2022-07-29T08:23:45;21.50;99.90
26873;DHT22;14445;53.056;4.804;2022-07-29T08:26:12;21.60;99.90
26873;DHT22;14445;53.056;4.804;2022-07-29T08:28:39;21.60;99.90
26873;DHT22;14445;53.056;4.804;2022-07-29T08:31:05;21.60;99.90
26873;DHT22;14445;53.056;4.804;2022-07-29T08:33:32;21.70;99.90
26873;DHT22;14445;53.056;4.804;2022-07-29T08:35:57;21.80;99.90
26873;DHT22;14445;53.056;4.804;2022-07-29T08:38:23;22.00;99.90
26873;DHT22;14445;53.056;4.804;2022-07-29T08:40:48;22.10;99.90
26873;DHT22;14445;53.056;4.804;2022-07-29T08:43:14;22.30;99.90
26873;DHT22;14445;53.056;4.804;2022-07-29T08:45:45;22.30;99.90
26873;DHT22;14445;53.056;4.804;2022-07-29T08:48:21;22.40;99.90
26873;DHT22;14445;53.056;4.804;2022-07-29T08:50:50;22.50;99.90
26873;DHT22;14445;53.056;4.804;2022-07-29T08:53:18;22.50;99.90
26873;DHT22;14445;53.056;4.804;2022-07-29T08:55:48;22.60;99.90
26873;DHT22;14445;53.056;4.804;2022-07-29T08:58:15;22.70;99.90
26873;DHT22;14445;53.056;4.804;2022-07-29T09:01:02;22.90;99.70
26873;DHT22;14445;53.056;4.804;2022-07-29T09:03:32;23.00;99.60
26873;DHT22;14445;53.056;4.804;2022-07-29T09:06:00;23.10;99.40
26873;DHT22;14445;53.056;4.804;2022-07-29T09:08:27;23.30;99.40
26873;DHT22;14445;53.056;4.804;2022-07-29T09:10:54;23.30;98.80
26873;DHT22;14445;53.056;4.804;2022-07-29T09:13:21;23.30;98.40
26873;DHT22;14445;53.056;4.804;2022-07-29T09:15:47;23.30;98.30
26873;DHT22;14445;53.056;4.804;2022-07-29T09:18:40;23.30;97.90
26873;DHT22;14445;53.056;4.804;2022-07-29T09:21:09;23.10;97.90
26873;DHT22;14445;53.056;4.804;2022-07-29T09:24:10;23.00;98.10
26873;DHT22;14445;53.056;4.804;2022-07-29T09:26:39;23.10;98.00
26873;DHT22;14445;53.056;4.804;2022-07-29T09:29:16;23.20;97.90
26873;DHT22;14445;53.056;4.804;2022-07-29T09:31:53;23.10;97.70
26873;DHT22;14445;53.056;4.804;2022-07-29T09:34:24;23.00;97.90
26873;DHT22;14445;53.056;4.804;2022-07-29T09:36:51;23.00;98.20
26873;DHT22;14445;53.056;4.804;2022-07-29T09:39:28;23.00;98.20
26873;DHT22;14445;53.056;4.804;2022-07-29T09:41:56;23.00;98.20
26873;DHT22;14445;53.056;4.804;2022-07-29T09:44:23;23.10;98.30
26873;DHT22;14445;53.056;4.804;2022-07-29T09:46:55;23.30;98.30
26873;DHT22;14445;53.056;4.804;2022-07-29T09:49:21;23.30;98.00
26873;DHT22;14445;53.056;4.804;2022-07-29T09:51:46;23.30;98.10
26873;DHT22;14445;53.056;4.804;2022-07-29T09:56:47;23.30;97.70
26873;DHT22;14445;53.056;4.804;2022-07-29T09:59:13;23.30;98.00
26873;DHT22;14445;53.056;4.804;2022-07-29T10:01:39;23.40;97.90
26873;DHT22;14445;53.056;4.804;2022-07-29T10:04:04;23.40;97.50
26873;DHT22;14445;53.056;4.804;2022-07-29T10:06:30;23.40;97.50
26873;DHT22;14445;53.056;4.804;2022-07-29T10:09:07;23.30;97.50
26873;DHT22;14445;53.056;4.804;2022-07-29T10:11:33;23.30;97.40
26873;DHT22;14445;53.056;4.804;2022-07-29T10:14:02;23.30;97.70
26873;DHT22;14445;53.056;4.804;2022-07-29T10:16:28;23.30;97.80
26873;DHT22;14445;53.056;4.804;2022-07-29T10:18:58;23.30;97.50
26873;DHT22;14445;53.056;4.804;2022-07-29T10:21:25;23.10;97.40
26873;DHT22;14445;53.056;4.804;2022-07-29T10:23:52;23.00;97.70
26873;DHT22;14445;53.056;4.804;2022-07-29T10:26:17;23.00;97.70
26873;DHT22;14445;53.056;4.804;2022-07-29T10:28:44;23.10;97.60
26873;DHT22;14445;53.056;4.804;2022-07-29T10:31:15;23.10;97.70
26873;DHT22;14445;53.056;4.804;2022-07-29T10:34:19;23.20;97.90
26873;DHT22;14445;53.056;4.804;2022-07-29T10:39:51;23.40;97.00
26873;DHT22;14445;53.056;4.804;2022-07-29T10:42:22;23.40;97.00
26873;DHT22;14445;53.056;4.804;2022-07-29T10:44:50;23.40;96.90
26873;DHT22;14445;53.056;4.804;2022-07-29T10:47:21;23.30;96.90
26873;DHT22;14445;53.056;4.804;2022-07-29T10:50:01;23.30;96.60
26873;DHT22;14445;53.056;4.804;2022-07-29T10:55:37;23.30;96.70
26873;DHT22;14445;53.056;4.804;2022-07-29T11:00:37;23.20;96.90
26873;DHT22;14445;53.056;4.804;2022-07-29T11:03:03;23.20;97.10
26873;DHT22;14445;53.056;4.804;2022-07-29T11:05:28;23.20;97.00
26873;DHT22;14445;53.056;4.804;2022-07-29T11:10:49;23.30;96.90
26873;DHT22;14445;53.056;4.804;2022-07-29T11:16:09;23.40;96.50
26873;DHT22;14445;53.056;4.804;2022-07-29T11:18:34;23.30;96.10
26873;DHT22;14445;53.056;4.804;2022-07-29T11:21:00;23.30;96.60
26873;DHT22;14445;53.056;4.804;2022-07-29T11:23:30;23.40;96.30
26873;DHT22;14445;53.056;4.804;2022-07-29T11:26:20;23.50;96.40
26873;DHT22;14445;53.056;4.804;2022-07-29T11:31:19;23.40;96.30
26873;DHT22;14445;53.056;4.804;2022-07-29T11:33:45;23.50;96.40
26873;DHT22;14445;53.056;4.804;2022-07-29T11:36:12;23.60;96.30
26873;DHT22;14445;53.056;4.804;2022-07-29T11:38:38;23.70;95.80
26873;DHT22;14445;53.056;4.804;2022-07-29T11:41:24;23.80;95.60
26873;DHT22;14445;53.056;4.804;2022-07-29T11:43:56;24.00;95.70
26873;DHT22;14445;53.056;4.804;2022-07-29T11:46:54;24.10;95.00
26873;DHT22;14445;53.056;4.804;2022-07-29T11:49:22;24.00;94.90
26873;DHT22;14445;53.056;4.804;2022-07-29T11:51:55;24.10;94.90
26873;DHT22;14445;53.056;4.804;2022-07-29T11:54:32;24.20;94.90
26873;DHT22;14445;53.056;4.804;2022-07-29T11:56:59;24.40;94.80
26873;DHT22;14445;53.056;4.804;2022-07-29T11:59:25;24.60;94.10
26873;DHT22;14445;53.056;4.804;2022-07-29T12:01:55;24.70;93.60
26873;DHT22;14445;53.056;4.804;2022-07-29T12:04:20;24.70;93.60
26873;DHT22;14445;53.056;4.804;2022-07-29T12:06:50;24.70;93.30
26873;DHT22;14445;53.056;4.804;2022-07-29T12:09:16;24.70;93.30
26873;DHT22;14445;53.056;4.804;2022-07-29T12:11:43;24.90;93.40
26873;DHT22;14445;53.056;4.804;2022-07-29T12:14:08;25.10;93.00
26873;DHT22;14445;53.056;4.804;2022-07-29T12:16:37;25.10;92.80
26873;DHT22;14445;53.056;4.804;2022-07-29T12:19:04;25.20;93.00
26873;DHT22;14445;53.056;4.804;2022-07-29T12:21:44;25.20;92.30
26873;DHT22;14445;53.056;4.804;2022-07-29T12:24:10;25.00;92.00
26873;DHT22;14445;53.056;4.804;2022-07-29T12:26:36;25.10;92.30
26873;DHT22;14445;53.056;4.804;2022-07-29T12:29:02;25.00;91.90
26873;DHT22;14445;53.056;4.804;2022-07-29T12:31:28;24.80;92.10
26873;DHT22;14445;53.056;4.804;2022-07-29T12:33:54;24.60;92.00
26873;DHT22;14445;53.056;4.804;2022-07-29T12:36:19;24.40;92.40
26873;DHT22;14445;53.056;4.804;2022-07-29T12:38:45;24.50;92.60
26873;DHT22;14445;53.056;4.804;2022-07-29T12:41:11;24.60;92.50
26873;DHT22;14445;53.056;4.804;2022-07-29T12:43:37;24.60;92.40
26873;DHT22;14445;53.056;4.804;2022-07-29T12:46:14;24.60;92.50
26873;DHT22;14445;53.056;4.804;2022-07-29T12:48:41;24.40;92.40
26873;DHT22;14445;53.056;4.804;2022-07-29T12:51:08;24.40;92.70
26873;DHT22;14445;53.056;4.804;2022-07-29T12:53:35;24.50;92.50
26873;DHT22;14445;53.056;4.804;2022-07-29T12:56:01;24.40;92.70
26873;DHT22;14445;53.056;4.804;2022-07-29T12:58:39;24.50;92.80
26873;DHT22;14445;53.056;4.804;2022-07-29T13:01:07;24.40;92.60
26873;DHT22;14445;53.056;4.804;2022-07-29T13:06:33;24.40;92.40
26873;DHT22;14445;53.056;4.804;2022-07-29T13:14:13;24.70;92.60
26873;DHT22;14445;53.056;4.804;2022-07-29T13:19:39;24.60;92.40
26873;DHT22;14445;53.056;4.804;2022-07-29T13:22:13;24.60;92.30
26873;DHT22;14445;53.056;4.804;2022-07-29T13:24:47;24.70;92.40
26873;DHT22;14445;53.056;4.804;2022-07-29T13:27:26;24.80;92.30
26873;DHT22;14445;53.056;4.804;2022-07-29T13:29:53;24.90;92.10
26873;DHT22;14445;53.056;4.804;2022-07-29T13:32:22;25.00;92.00
26873;DHT22;14445;53.056;4.804;2022-07-29T13:34:48;25.10;91.70
26873;DHT22;14445;53.056;4.804;2022-07-29T13:37:13;25.10;91.80
26873;DHT22;14445;53.056;4.804;2022-07-29T13:39:39;25.10;91.40
26873;DHT22;14445;53.056;4.804;2022-07-29T13:42:06;25.20;91.80
26873;DHT22;14445;53.056;4.804;2022-07-29T13:44:32;25.30;91.50
26873;DHT22;14445;53.056;4.804;2022-07-29T13:46:57;25.30;91.40
26873;DHT22;14445;53.056;4.804;2022-07-29T13:49:24;25.30;91.30
26873;DHT22;14445;53.056;4.804;2022-07-29T13:51:50;25.30;91.00
26873;DHT22;14445;53.056;4.804;2022-07-29T13:54:16;25.30;91.20
26873;DHT22;14445;53.056;4.804;2022-07-29T13:56:42;25.20;91.30
26873;DHT22;14445;53.056;4.804;2022-07-29T13:59:07;25.30;91.00
26873;DHT22;14445;53.056;4.804;2022-07-29T14:01:34;25.40;90.90
26873;DHT22;14445;53.056;4.804;2022-07-29T14:03:59;25.50;91.00
26873;DHT22;14445;53.056;4.804;2022-07-29T14:06:25;25.60;90.80
26873;DHT22;14445;53.056;4.804;2022-07-29T14:08:50;25.60;90.60
26873;DHT22;14445;53.056;4.804;2022-07-29T14:11:16;25.60;90.30
26873;DHT22;14445;53.056;4.804;2022-07-29T14:13:41;25.40;89.90
26873;DHT22;14445;53.056;4.804;2022-07-29T14:16:07;25.30;90.50
26873;DHT22;14445;53.056;4.804;2022-07-29T14:18:33;25.40;90.70
26873;DHT22;14445;53.056;4.804;2022-07-29T14:20:58;25.40;90.40
26873;DHT22;14445;53.056;4.804;2022-07-29T14:23:24;25.50;90.50
26873;DHT22;14445;53.056;4.804;2022-07-29T14:25:49;25.60;90.50
26873;DHT22;14445;53.056;4.804;2022-07-29T14:28:15;25.70;90.30
26873;DHT22;14445;53.056;4.804;2022-07-29T14:30:41;25.70;90.00
26873;DHT22;14445;53.056;4.804;2022-07-29T14:33:06;25.60;90.00
26873;DHT22;14445;53.056;4.804;2022-07-29T14:35:33;25.40;89.30
26873;DHT22;14445;53.056;4.804;2022-07-29T14:37:58;25.20;89.90
26873;DHT22;14445;53.056;4.804;2022-07-29T14:40:24;25.10;90.40
26873;DHT22;14445;53.056;4.804;2022-07-29T14:42:50;25.10;90.30
26873;DHT22;14445;53.056;4.804;2022-07-29T14:45:16;25.20;90.30
26873;DHT22;14445;53.056;4.804;2022-07-29T14:47:41;25.30;90.40
26873;DHT22;14445;53.056;4.804;2022-07-29T14:50:08;25.40;90.20
26873;DHT22;14445;53.056;4.804;2022-07-29T14:52:34;25.30;90.00
26873;DHT22;14445;53.056;4.804;2022-07-29T14:55:00;25.30;90.00
26873;DHT22;14445;53.056;4.804;2022-07-29T14:57:25;25.30;89.90
26873;DHT22;14445;53.056;4.804;2022-07-29T14:59:51;25.20;90.00
26873;DHT22;14445;53.056;4.804;2022-07-29T15:02:16;25.10;89.90
26873;DHT22;14445;53.056;4.804;2022-07-29T15:04:42;25.00;90.00
26873;DHT22;14445;53.056;4.804;2022-07-29T15:07:09;24.90;90.00
26873;DHT22;14445;53.056;4.804;2022-07-29T15:09:34;24.80;89.30
26873;DHT22;14445;53.056;4.804;2022-07-29T15:12:00;24.90;90.00
26873;DHT22;14445;53.056;4.804;2022-07-29T15:14:25;24.70;90.00
26873;DHT22;14445;53.056;4.804;2022-07-29T15:16:51;24.50;90.70
26873;DHT22;14445;53.056;4.804;2022-07-29T15:19:16;24.60;91.40
26873;DHT22;14445;53.056;4.804;2022-07-29T15:21:42;24.50;91.70
26873;DHT22;14445;53.056;4.804;2022-07-29T15:24:07;24.50;91.70
26873;DHT22;14445;53.056;4.804;2022-07-29T15:26:33;24.30;92.00
26873;DHT22;14445;53.056;4.804;2022-07-29T15:28:59;24.30;92.30
26873;DHT22;14445;53.056;4.804;2022-07-29T15:31:25;24.20;92.40
26873;DHT22;14445;53.056;4.804;2022-07-29T15:33:50;24.20;93.00
26873;DHT22;14445;53.056;4.804;2022-07-29T15:36:16;24.30;93.00
26873;DHT22;14445;53.056;4.804;2022-07-29T15:38:41;24.40;92.70
26873;DHT22;14445;53.056;4.804;2022-07-29T15:41:07;24.40;92.80
26873;DHT22;14445;53.056;4.804;2022-07-29T15:43:33;24.40;92.90
26873;DHT22;14445;53.056;4.804;2022-07-29T15:46:00;24.40;93.10
26873;DHT22;14445;53.056;4.804;2022-07-29T15:48:44;24.40;93.20
26873;DHT22;14445;53.056;4.804;2022-07-29T15:51:10;24.40;93.10
26873;DHT22;14445;53.056;4.804;2022-07-29T15:53:35;24.50;93.30
26873;DHT22;14445;53.056;4.804;2022-07-29T15:56:01;24.70;93.20
26873;DHT22;14445;53.056;4.804;2022-07-29T15:58:26;24.50;92.90
26873;DHT22;14445;53.056;4.804;2022-07-29T16:00:52;24.40;93.10
26873;DHT22;14445;53.056;4.804;2022-07-29T16:03:17;24.40;93.20
26873;DHT22;14445;53.056;4.804;2022-07-29T16:05:44;24.50;93.70
26873;DHT22;14445;53.056;4.804;2022-07-29T16:08:09;24.60;93.50
26873;DHT22;14445;53.056;4.804;2022-07-29T16:10:35;24.70;92.80